sensor_id;sensor_type;location;lat;lon;timestamp;temperature;humidity
7738;DHT22;29398;45.328;5.558;2023-08-30T00:00:18;16.00;99.90
7738;DHT22;29398;45.328;5.558;2023-08-30T00:01:23;16.00;99.90
7738;DHT22;29398;45.328;5.558;2023-08-30T00:02:24;16.00;99.90
7738;DHT22;29398;45.328;5.558;2023-08-30T00:03:26;16.00;99.90
7738;DHT22;29398;45.328;5.558;2023-08-30T00:04:27;16.00;99.90
7738;DHT22;29398;45.328;5.558;2023-08-30T00:05:29;16.00;99.90
7738;DHT22;29398;45.328;5.558;2023-08-30T00:06:30;16.00;99.90
7738;DHT22;29398;45.328;5.558;2023-08-30T00:07:32;15.90;99.90
7738;DHT22;29398;45.328;5.558;2023-08-30T00:08:34;16.00;99.90
7738;DHT22;29398;45.328;5.558;2023-08-30T00:09:36;15.90;99.90
7738;DHT22;29398;45.328;5.558;2023-08-30T00:10:37;15.90;99.90
7738;DHT22;29398;45.328;5.558;2023-08-30T00:11:39;15.90;99.90
7738;DHT22;29398;45.328;5.558;2023-08-30T00:12:58;15.90;99.90
7738;DHT22;29398;45.328;5.558;2023-08-30T00:14:04;15.80;99.90
7738;DHT22;29398;45.328;5.558;2023-08-30T00:15:07;15.80;99.90
7738;DHT22;29398;45.328;5.558;2023-08-30T00:16:09;15.80;99.90
7738;DHT22;29398;45.328;5.558;2023-08-30T00:17:12;15.80;99.90
7738;DHT22;29398;45.328;5.558;2023-08-30T00:18:14;15.80;99.90
7738;DHT22;29398;45.328;5.558;2023-08-30T00:19:15;15.80;99.90
7738;DHT22;29398;45.328;5.558;2023-08-30T00:20:17;15.80;99.90
7738;DHT22;29398;45.328;5.558;2023-08-30T00:21:18;15.80;99.90
7738;DHT22;29398;45.328;5.558;2023-08-30T00:22:22;15.80;99.90
7738;DHT22;29398;45.328;5.558;2023-08-30T00:23:23;15.70;99.90
7738;DHT22;29398;45.328;5.558;2023-08-30T00:24:25;15.80;99.90
7738;DHT22;29398;45.328;5.558;2023-08-30T00:25:26;15.70;99.90
7738;DHT22;29398;45.328;5.558;2023-08-30T00:26:27;15.70;99.90
7738;DHT22;29398;45.328;5.558;2023-08-30T00:27:30;15.70;99.90
7738;DHT22;29398;45.328;5.558;2023-08-30T00:28:31;15.70;99.90
7738;DHT22;29398;45.328;5.558;2023-08-30T00:29:34;15.70;99.90
7738;DHT22;29398;45.328;5.558;2023-08-30T00:30:36;15.70;99.90
7738;DHT22;29398;45.328;5.558;2023-08-30T00:31:38;15.80;99.90
7738;DHT22;29398;45.328;5.558;2023-08-30T00:32:40;15.70;99.90
7738;DHT22;29398;45.328;5.558;2023-08-30T00:33:42;15.70;99.90
7738;DHT22;29398;45.328;5.558;2023-08-30T00:34:49;15.70;99.90
7738;DHT22;29398;45.328;5.558;2023-08-30T00:35:57;15.70;99.90
7738;DHT22;29398;45.328;5.558;2023-08-30T00:36:58;15.70;99.90
7738;DHT22;29398;45.328;5.558;2023-08-30T00:38:02;15.70;99.90
7738;DHT22;29398;45.328;5.558;2023-08-30T00:39:03;15.50;99.90
7738;DHT22;29398;45.328;5.558;2023-08-30T00:40:06;15.60;99.90
7738;DHT22;29398;45.328;5.558;2023-08-30T00:41:08;15.60;99.90
7738;DHT22;29398;45.328;5.558;2023-08-30T00:43:11;15.60;99.90
7738;DHT22;29398;45.328;5.558;2023-08-30T00:44:12;15.50;99.90
7738;DHT22;29398;45.328;5.558;2023-08-30T00:45:14;15.50;99.90
7738;DHT22;29398;45.328;5.558;2023-08-30T00:46:16;15.50;99.90
7738;DHT22;29398;45.328;5.558;2023-08-30T00:48:21;15.50;99.90
7738;DHT22;29398;45.328;5.558;2023-08-30T00:49:22;15.50;99.90
7738;DHT22;29398;45.328;5.558;2023-08-30T00:50:26;15.40;99.90
7738;DHT22;29398;45.328;5.558;2023-08-30T00:51:27;15.40;99.90
7738;DHT22;29398;45.328;5.558;2023-08-30T00:52:29;15.40;99.90
7738;DHT22;29398;45.328;5.558;2023-08-30T00:53:30;15.40;99.90
7738;DHT22;29398;45.328;5.558;2023-08-30T00:54:33;15.50;99.90
7738;DHT22;29398;45.328;5.558;2023-08-30T00:55:34;15.40;99.90
7738;DHT22;29398;45.328;5.558;2023-08-30T00:56:37;15.40;99.90
7738;DHT22;29398;45.328;5.558;2023-08-30T00:57:38;15.40;99.90
7738;DHT22;29398;45.328;5.558;2023-08-30T00:59:42;15.30;99.90
7738;DHT22;29398;45.328;5.558;2023-08-30T01:00:44;15.40;99.90
7738;DHT22;29398;45.328;5.558;2023-08-30T01:01:45;15.30;99.90
7738;DHT22;29398;45.328;5.558;2023-08-30T01:02:46;15.30;99.90
7738;DHT22;29398;45.328;5.558;2023-08-30T01:03:50;15.30;99.90
7738;DHT22;29398;45.328;5.558;2023-08-30T01:04:51;15.30;99.90
7738;DHT22;29398;45.328;5.558;2023-08-30T01:05:53;15.20;99.90
7738;DHT22;29398;45.328;5.558;2023-08-30T01:06:54;15.30;99.90
7738;DHT22;29398;45.328;5.558;2023-08-30T01:07:56;15.30;99.90
7738;DHT22;29398;45.328;5.558;2023-08-30T01:08:57;15.30;99.90
7738;DHT22;29398;45.328;5.558;2023-08-30T01:10:01;15.20;99.90
7738;DHT22;29398;45.328;5.558;2023-08-30T01:11:08;15.20;99.90
7738;DHT22;29398;45.328;5.558;2023-08-30T01:12:16;15.20;99.90
7738;DHT22;29398;45.328;5.558;2023-08-30T01:13:19;15.20;99.90
7738;DHT22;29398;45.328;5.558;2023-08-30T01:14:24;15.20;99.90
7738;DHT22;29398;45.328;5.558;2023-08-30T01:15:27;15.20;99.90
7738;DHT22;29398;45.328;5.558;2023-08-30T01:16:29;15.10;99.90
7738;DHT22;29398;45.328;5.558;2023-08-30T01:17:33;15.10;99.90
7738;DHT22;29398;45.328;5.558;2023-08-30T01:18:35;15.10;99.90
7738;DHT22;29398;45.328;5.558;2023-08-30T01:19:45;15.10;99.90
7738;DHT22;29398;45.328;5.558;2023-08-30T01:20:52;15.10;99.90
7738;DHT22;29398;45.328;5.558;2023-08-30T01:22:00;15.10;99.90
7738;DHT22;29398;45.328;5.558;2023-08-30T01:23:35;15.00;99.90
7738;DHT22;29398;45.328;5.558;2023-08-30T01:24:44;15.00;99.90
7738;DHT22;29398;45.328;5.558;2023-08-30T01:25:53;13.80;99.90
7738;DHT22;29398;45.328;5.558;2023-08-30T01:27:10;15.00;99.90
7738;DHT22;29398;45.328;5.558;2023-08-30T01:28:33;15.00;99.90
7738;DHT22;29398;45.328;5.558;2023-08-30T01:29:36;15.00;99.90
7738;DHT22;29398;45.328;5.558;2023-08-30T01:30:41;15.00;99.90
7738;DHT22;29398;45.328;5.558;2023-08-30T01:31:44;15.00;99.90
7738;DHT22;29398;45.328;5.558;2023-08-30T01:32:48;15.00;99.90
7738;DHT22;29398;45.328;5.558;2023-08-30T01:33:51;15.00;99.90
7738;DHT22;29398;45.328;5.558;2023-08-30T01:34:54;15.00;99.90
7738;DHT22;29398;45.328;5.558;2023-08-30T01:35:57;14.90;99.90
7738;DHT22;29398;45.328;5.558;2023-08-30T01:37:03;14.90;99.90
7738;DHT22;29398;45.328;5.558;2023-08-30T01:38:06;15.40;99.90
7738;DHT22;29398;45.328;5.558;2023-08-30T01:39:10;14.90;99.90
7738;DHT22;29398;45.328;5.558;2023-08-30T01:40:13;14.90;99.90
7738;DHT22;29398;45.328;5.558;2023-08-30T01:41:17;14.90;99.90
7738;DHT22;29398;45.328;5.558;2023-08-30T01:42:21;14.90;99.90
7738;DHT22;29398;45.328;5.558;2023-08-30T01:43:23;14.80;99.90
7738;DHT22;29398;45.328;5.558;2023-08-30T01:44:28;14.80;99.90
7738;DHT22;29398;45.328;5.558;2023-08-30T01:45:29;14.80;99.90
7738;DHT22;29398;45.328;5.558;2023-08-30T01:46:33;14.80;99.90
7738;DHT22;29398;45.328;5.558;2023-08-30T01:47:35;14.80;99.90
7738;DHT22;29398;45.328;5.558;2023-08-30T01:48:39;14.80;99.90
7738;DHT22;29398;45.328;5.558;2023-08-30T01:49:41;14.80;99.90
7738;DHT22;29398;45.328;5.558;2023-08-30T01:51:45;14.80;99.90
7738;DHT22;29398;45.328;5.558;2023-08-30T01:52:48;14.70;99.90
7738;DHT22;29398;45.328;5.558;2023-08-30T01:53:51;14.70;99.90
7738;DHT22;29398;45.328;5.558;2023-08-30T01:54:54;14.70;99.90
7738;DHT22;29398;45.328;5.558;2023-08-30T01:55:55;14.70;99.90
7738;DHT22;29398;45.328;5.558;2023-08-30T01:56:57;14.70;99.90
7738;DHT22;29398;45.328;5.558;2023-08-30T01:58:00;14.70;99.90
7738;DHT22;29398;45.328;5.558;2023-08-30T01:59:02;14.70;99.90
7738;DHT22;29398;45.328;5.558;2023-08-30T02:00:04;14.70;99.90
7738;DHT22;29398;45.328;5.558;2023-08-30T02:01:16;14.70;99.90
7738;DHT22;29398;45.328;5.558;2023-08-30T02:02:18;14.70;99.90
7738;DHT22;29398;45.328;5.558;2023-08-30T02:03:19;14.70;99.90
7738;DHT22;29398;45.328;5.558;2023-08-30T02:04:21;14.70;99.90
7738;DHT22;29398;45.328;5.558;2023-08-30T02:05:22;14.60;99.90
7738;DHT22;29398;45.328;5.558;2023-08-30T02:06:28;14.60;99.90
7738;DHT22;29398;45.328;5.558;2023-08-30T02:07:36;14.60;99.90
7738;DHT22;29398;45.328;5.558;2023-08-30T02:08:44;14.60;99.90
7738;DHT22;29398;45.328;5.558;2023-08-30T02:09:50;14.60;99.90
7738;DHT22;29398;45.328;5.558;2023-08-30T02:10:56;14.60;99.90
7738;DHT22;29398;45.328;5.558;2023-08-30T02:12:05;14.60;99.90
7738;DHT22;29398;45.328;5.558;2023-08-30T02:13:11;14.50;99.90
7738;DHT22;29398;45.328;5.558;2023-08-30T02:14:14;14.50;99.90
7738;DHT22;29398;45.328;5.558;2023-08-30T02:15:19;14.50;99.90
7738;DHT22;29398;45.328;5.558;2023-08-30T02:16:21;14.40;99.90
7738;DHT22;29398;45.328;5.558;2023-08-30T02:17:24;14.40;99.90
7738;DHT22;29398;45.328;5.558;2023-08-30T02:18:26;14.40;99.90
7738;DHT22;29398;45.328;5.558;2023-08-30T02:19:31;14.40;99.90
7738;DHT22;29398;45.328;5.558;2023-08-30T02:20:34;14.40;99.90
7738;DHT22;29398;45.328;5.558;2023-08-30T02:21:35;14.40;99.90
7738;DHT22;29398;45.328;5.558;2023-08-30T02:23:41;14.30;99.90
7738;DHT22;29398;45.328;5.558;2023-08-30T02:25:44;14.30;99.90
7738;DHT22;29398;45.328;5.558;2023-08-30T02:26:46;14.30;99.90
7738;DHT22;29398;45.328;5.558;2023-08-30T02:27:47;14.30;99.90
7738;DHT22;29398;45.328;5.558;2023-08-30T02:28:51;14.30;99.90
7738;DHT22;29398;45.328;5.558;2023-08-30T02:29:52;14.20;99.90
7738;DHT22;29398;45.328;5.558;2023-08-30T02:30:53;14.30;99.90
7738;DHT22;29398;45.328;5.558;2023-08-30T02:31:55;14.20;99.90
7738;DHT22;29398;45.328;5.558;2023-08-30T02:32:56;14.20;99.90
7738;DHT22;29398;45.328;5.558;2023-08-30T02:33:58;14.20;99.90
7738;DHT22;29398;45.328;5.558;2023-08-30T02:35:00;14.20;99.90
7738;DHT22;29398;45.328;5.558;2023-08-30T02:36:02;14.20;99.90
7738;DHT22;29398;45.328;5.558;2023-08-30T02:37:05;14.20;99.90
7738;DHT22;29398;45.328;5.558;2023-08-30T02:38:07;14.20;99.90
7738;DHT22;29398;45.328;5.558;2023-08-30T02:39:08;14.20;99.90
7738;DHT22;29398;45.328;5.558;2023-08-30T02:40:12;14.20;99.90
7738;DHT22;29398;45.328;5.558;2023-08-30T02:41:13;14.20;99.90
7738;DHT22;29398;45.328;5.558;2023-08-30T02:42:16;14.20;99.90
7738;DHT22;29398;45.328;5.558;2023-08-30T02:43:17;14.20;99.90
7738;DHT22;29398;45.328;5.558;2023-08-30T02:44:20;14.20;99.90
7738;DHT22;29398;45.328;5.558;2023-08-30T02:45:21;14.20;99.90
7738;DHT22;29398;45.328;5.558;2023-08-30T02:46:24;14.20;99.90
7738;DHT22;29398;45.328;5.558;2023-08-30T02:47:24;14.20;99.90
7738;DHT22;29398;45.328;5.558;2023-08-30T02:48:27;14.20;99.90
7738;DHT22;29398;45.328;5.558;2023-08-30T02:49:28;14.20;99.90
7738;DHT22;29398;45.328;5.558;2023-08-30T02:50:31;14.20;99.90
7738;DHT22;29398;45.328;5.558;2023-08-30T02:51:32;14.20;99.90
7738;DHT22;29398;45.328;5.558;2023-08-30T02:52:34;14.20;99.90
7738;DHT22;29398;45.328;5.558;2023-08-30T02:53:35;14.20;99.90
7738;DHT22;29398;45.328;5.558;2023-08-30T02:54:37;14.20;99.90
7738;DHT22;29398;45.328;5.558;2023-08-30T02:55:38;14.20;99.90
7738;DHT22;29398;45.328;5.558;2023-08-30T02:56:41;14.20;99.90
7738;DHT22;29398;45.328;5.558;2023-08-30T02:57:44;14.20;99.90
7738;DHT22;29398;45.328;5.558;2023-08-30T02:58:46;14.30;99.90
7738;DHT22;29398;45.328;5.558;2023-08-30T02:59:49;14.30;99.90
7738;DHT22;29398;45.328;5.558;2023-08-30T03:00:53;14.30;99.90
7738;DHT22;29398;45.328;5.558;2023-08-30T03:01:54;14.30;99.90
7738;DHT22;29398;45.328;5.558;2023-08-30T03:02:56;14.30;99.90
7738;DHT22;29398;45.328;5.558;2023-08-30T03:03:57;14.30;99.90
7738;DHT22;29398;45.328;5.558;2023-08-30T03:04:58;14.40;99.90
7738;DHT22;29398;45.328;5.558;2023-08-30T03:06:01;14.30;99.90
7738;DHT22;29398;45.328;5.558;2023-08-30T03:07:03;14.30;99.90
7738;DHT22;29398;45.328;5.558;2023-08-30T03:08:06;14.30;99.90
7738;DHT22;29398;45.328;5.558;2023-08-30T03:09:08;15.40;99.90
7738;DHT22;29398;45.328;5.558;2023-08-30T03:10:12;14.30;99.90
7738;DHT22;29398;45.328;5.558;2023-08-30T03:11:13;14.30;99.90
7738;DHT22;29398;45.328;5.558;2023-08-30T03:12:21;14.30;99.90
7738;DHT22;29398;45.328;5.558;2023-08-30T03:13:23;14.30;99.90
7738;DHT22;29398;45.328;5.558;2023-08-30T03:14:24;14.30;99.90
7738;DHT22;29398;45.328;5.558;2023-08-30T03:15:30;14.30;99.90
7738;DHT22;29398;45.328;5.558;2023-08-30T03:16:32;14.30;99.90
7738;DHT22;29398;45.328;5.558;2023-08-30T03:17:33;14.30;99.90
7738;DHT22;29398;45.328;5.558;2023-08-30T03:18:36;14.30;99.90
7738;DHT22;29398;45.328;5.558;2023-08-30T03:19:37;14.30;99.90
7738;DHT22;29398;45.328;5.558;2023-08-30T03:21:41;14.20;99.90
7738;DHT22;29398;45.328;5.558;2023-08-30T03:22:44;14.30;99.90
7738;DHT22;29398;45.328;5.558;2023-08-30T03:23:45;14.30;99.90
7738;DHT22;29398;45.328;5.558;2023-08-30T03:24:47;14.20;99.90
7738;DHT22;29398;45.328;5.558;2023-08-30T03:25:48;14.20;99.90
7738;DHT22;29398;45.328;5.558;2023-08-30T03:26:50;14.20;99.90
7738;DHT22;29398;45.328;5.558;2023-08-30T03:27:53;14.20;99.90
7738;DHT22;29398;45.328;5.558;2023-08-30T03:28:57;14.10;99.90
7738;DHT22;29398;45.328;5.558;2023-08-30T03:30:00;14.20;99.90
7738;DHT22;29398;45.328;5.558;2023-08-30T03:31:14;14.20;99.90
7738;DHT22;29398;45.328;5.558;2023-08-30T03:32:17;14.10;99.90
7738;DHT22;29398;45.328;5.558;2023-08-30T03:33:18;14.10;99.90
7738;DHT22;29398;45.328;5.558;2023-08-30T03:34:20;14.10;99.90
7738;DHT22;29398;45.328;5.558;2023-08-30T03:35:21;14.20;99.90
7738;DHT22;29398;45.328;5.558;2023-08-30T03:36:25;14.10;99.90
7738;DHT22;29398;45.328;5.558;2023-08-30T03:37:27;14.10;99.90
7738;DHT22;29398;45.328;5.558;2023-08-30T03:38:30;14.10;99.90
7738;DHT22;29398;45.328;5.558;2023-08-30T03:39:31;14.10;99.90
7738;DHT22;29398;45.328;5.558;2023-08-30T03:40:34;14.00;99.90
7738;DHT22;29398;45.328;5.558;2023-08-30T03:41:35;14.00;99.90
7738;DHT22;29398;45.328;5.558;2023-08-30T03:42:38;14.00;99.90
7738;DHT22;29398;45.328;5.558;2023-08-30T03:43:40;13.90;99.90
7738;DHT22;29398;45.328;5.558;2023-08-30T03:44:43;13.90;99.90
7738;DHT22;29398;45.328;5.558;2023-08-30T03:45:44;13.90;99.90
7738;DHT22;29398;45.328;5.558;2023-08-30T03:46:49;13.90;99.90
7738;DHT22;29398;45.328;5.558;2023-08-30T03:47:50;13.90;99.90
7738;DHT22;29398;45.328;5.558;2023-08-30T03:48:52;13.80;99.90
7738;DHT22;29398;45.328;5.558;2023-08-30T03:49:53;13.80;99.90
7738;DHT22;29398;45.328;5.558;2023-08-30T03:50:56;13.80;99.90
7738;DHT22;29398;45.328;5.558;2023-08-30T03:51:57;13.80;99.90
7738;DHT22;29398;45.328;5.558;2023-08-30T03:52:59;13.80;99.90
7738;DHT22;29398;45.328;5.558;2023-08-30T03:54:00;13.80;99.90
7738;DHT22;29398;45.328;5.558;2023-08-30T03:55:03;13.80;99.90
7738;DHT22;29398;45.328;5.558;2023-08-30T03:56:04;13.70;99.90
7738;DHT22;29398;45.328;5.558;2023-08-30T03:57:06;13.70;99.90
7738;DHT22;29398;45.328;5.558;2023-08-30T03:58:08;13.70;99.90
7738;DHT22;29398;45.328;5.558;2023-08-30T03:59:09;13.70;99.90
7738;DHT22;29398;45.328;5.558;2023-08-30T04:00:11;13.70;99.90
7738;DHT22;29398;45.328;5.558;2023-08-30T04:01:15;13.70;99.90
7738;DHT22;29398;45.328;5.558;2023-08-30T04:02:19;13.70;99.90
7738;DHT22;29398;45.328;5.558;2023-08-30T04:03:20;13.70;99.90
7738;DHT22;29398;45.328;5.558;2023-08-30T04:04:22;13.70;99.90
7738;DHT22;29398;45.328;5.558;2023-08-30T04:05:23;13.70;99.90
7738;DHT22;29398;45.328;5.558;2023-08-30T04:06:25;13.60;99.90
7738;DHT22;29398;45.328;5.558;2023-08-30T04:07:26;13.70;99.90
7738;DHT22;29398;45.328;5.558;2023-08-30T04:08:29;13.70;99.90
7738;DHT22;29398;45.328;5.558;2023-08-30T04:09:30;13.60;99.90
7738;DHT22;29398;45.328;5.558;2023-08-30T04:10:34;13.60;99.90
7738;DHT22;29398;45.328;5.558;2023-08-30T04:11:37;13.70;99.90
7738;DHT22;29398;45.328;5.558;2023-08-30T04:12:39;13.70;99.90
7738;DHT22;29398;45.328;5.558;2023-08-30T04:13:40;13.70;99.90
7738;DHT22;29398;45.328;5.558;2023-08-30T04:14:42;13.60;99.90
7738;DHT22;29398;45.328;5.558;2023-08-30T04:15:43;13.60;99.90
7738;DHT22;29398;45.328;5.558;2023-08-30T04:16:45;10.40;99.90
7738;DHT22;29398;45.328;5.558;2023-08-30T04:17:47;13.60;99.90
7738;DHT22;29398;45.328;5.558;2023-08-30T04:18:50;13.60;99.90
7738;DHT22;29398;45.328;5.558;2023-08-30T04:19:51;13.60;99.90
7738;DHT22;29398;45.328;5.558;2023-08-30T04:20:54;13.60;99.90
7738;DHT22;29398;45.328;5.558;2023-08-30T04:21:55;13.60;99.90
7738;DHT22;29398;45.328;5.558;2023-08-30T04:22:56;13.60;99.90
7738;DHT22;29398;45.328;5.558;2023-08-30T04:23:59;13.60;99.90
7738;DHT22;29398;45.328;5.558;2023-08-30T04:25:00;13.60;99.90
7738;DHT22;29398;45.328;5.558;2023-08-30T04:26:02;13.70;99.90
7738;DHT22;29398;45.328;5.558;2023-08-30T04:27:04;13.60;99.90
7738;DHT22;29398;45.328;5.558;2023-08-30T04:28:07;13.60;99.90
7738;DHT22;29398;45.328;5.558;2023-08-30T04:29:08;13.60;99.90
7738;DHT22;29398;45.328;5.558;2023-08-30T04:30:12;13.60;99.90
7738;DHT22;29398;45.328;5.558;2023-08-30T04:31:13;13.60;99.90
7738;DHT22;29398;45.328;5.558;2023-08-30T04:32:15;13.60;99.90
7738;DHT22;29398;45.328;5.558;2023-08-30T04:33:18;13.60;99.90
7738;DHT22;29398;45.328;5.558;2023-08-30T04:34:20;13.60;99.90
7738;DHT22;29398;45.328;5.558;2023-08-30T04:35:22;13.60;99.90
7738;DHT22;29398;45.328;5.558;2023-08-30T04:36:24;13.60;99.90
7738;DHT22;29398;45.328;5.558;2023-08-30T04:37:30;13.60;99.90
7738;DHT22;29398;45.328;5.558;2023-08-30T04:38:32;13.60;99.90
7738;DHT22;29398;45.328;5.558;2023-08-30T04:39:33;13.60;99.90
7738;DHT22;29398;45.328;5.558;2023-08-30T04:40:36;13.60;99.90
7738;DHT22;29398;45.328;5.558;2023-08-30T04:41:37;13.60;99.90
7738;DHT22;29398;45.328;5.558;2023-08-30T04:42:39;13.60;99.90
7738;DHT22;29398;45.328;5.558;2023-08-30T04:43:41;13.60;99.90
7738;DHT22;29398;45.328;5.558;2023-08-30T04:44:43;13.60;99.90
7738;DHT22;29398;45.328;5.558;2023-08-30T04:45:47;13.50;99.90
7738;DHT22;29398;45.328;5.558;2023-08-30T04:46:49;13.50;99.90
7738;DHT22;29398;45.328;5.558;2023-08-30T04:47:54;13.50;99.90
7738;DHT22;29398;45.328;5.558;2023-08-30T04:48:58;13.50;99.90
7738;DHT22;29398;45.328;5.558;2023-08-30T04:49:59;13.50;99.90
7738;DHT22;29398;45.328;5.558;2023-08-30T04:51:02;13.50;99.90
7738;DHT22;29398;45.328;5.558;2023-08-30T04:52:04;13.50;99.90
7738;DHT22;29398;45.328;5.558;2023-08-30T04:53:07;13.50;99.90
7738;DHT22;29398;45.328;5.558;2023-08-30T04:54:08;13.50;99.90
7738;DHT22;29398;45.328;5.558;2023-08-30T04:55:10;13.40;99.90
7738;DHT22;29398;45.328;5.558;2023-08-30T04:56:12;13.40;99.90
7738;DHT22;29398;45.328;5.558;2023-08-30T04:57:14;13.40;99.90
7738;DHT22;29398;45.328;5.558;2023-08-30T04:58:16;13.40;99.90
7738;DHT22;29398;45.328;5.558;2023-08-30T04:59:19;13.40;99.90
7738;DHT22;29398;45.328;5.558;2023-08-30T05:00:22;13.30;99.90
7738;DHT22;29398;45.328;5.558;2023-08-30T05:01:26;13.30;99.90
7738;DHT22;29398;45.328;5.558;2023-08-30T05:02:30;13.30;99.90
7738;DHT22;29398;45.328;5.558;2023-08-30T05:03:39;13.30;99.90
7738;DHT22;29398;45.328;5.558;2023-08-30T05:04:44;13.30;99.90
7738;DHT22;29398;45.328;5.558;2023-08-30T05:05:46;13.30;99.90
7738;DHT22;29398;45.328;5.558;2023-08-30T05:06:49;13.30;99.90
7738;DHT22;29398;45.328;5.558;2023-08-30T05:07:50;13.20;99.90
7738;DHT22;29398;45.328;5.558;2023-08-30T05:08:52;13.20;99.90
7738;DHT22;29398;45.328;5.558;2023-08-30T05:09:54;13.30;99.90
7738;DHT22;29398;45.328;5.558;2023-08-30T05:10:56;13.30;99.90
7738;DHT22;29398;45.328;5.558;2023-08-30T05:11:57;13.30;99.90
7738;DHT22;29398;45.328;5.558;2023-08-30T05:12:59;13.30;99.90
7738;DHT22;29398;45.328;5.558;2023-08-30T05:14:00;13.30;99.90
7738;DHT22;29398;45.328;5.558;2023-08-30T05:15:03;13.30;99.90
7738;DHT22;29398;45.328;5.558;2023-08-30T05:16:04;13.30;99.90
7738;DHT22;29398;45.328;5.558;2023-08-30T05:17:07;13.30;99.90
7738;DHT22;29398;45.328;5.558;2023-08-30T05:18:08;13.30;99.90
7738;DHT22;29398;45.328;5.558;2023-08-30T05:19:10;13.30;99.90
7738;DHT22;29398;45.328;5.558;2023-08-30T05:20:13;13.30;99.90
7738;DHT22;29398;45.328;5.558;2023-08-30T05:21:15;13.30;99.90
7738;DHT22;29398;45.328;5.558;2023-08-30T05:22:16;13.30;99.90
7738;DHT22;29398;45.328;5.558;2023-08-30T05:23:18;13.30;99.90
7738;DHT22;29398;45.328;5.558;2023-08-30T05:24:19;13.30;99.90
7738;DHT22;29398;45.328;5.558;2023-08-30T05:25:21;13.40;99.90
7738;DHT22;29398;45.328;5.558;2023-08-30T05:26:23;13.40;99.90
7738;DHT22;29398;45.328;5.558;2023-08-30T05:27:24;13.40;99.90
7738;DHT22;29398;45.328;5.558;2023-08-30T05:28:26;13.40;99.90
7738;DHT22;29398;45.328;5.558;2023-08-30T05:29:28;13.40;99.90
7738;DHT22;29398;45.328;5.558;2023-08-30T05:30:30;13.40;99.90
7738;DHT22;29398;45.328;5.558;2023-08-30T05:31:33;13.40;99.90
7738;DHT22;29398;45.328;5.558;2023-08-30T05:32:59;13.40;99.90
7738;DHT22;29398;45.328;5.558;2023-08-30T05:34:17;13.40;99.90
7738;DHT22;29398;45.328;5.558;2023-08-30T05:35:39;13.40;99.90
7738;DHT22;29398;45.328;5.558;2023-08-30T05:36:40;13.50;99.90
7738;DHT22;29398;45.328;5.558;2023-08-30T05:38:03;13.50;99.90
7738;DHT22;29398;45.328;5.558;2023-08-30T05:39:30;13.50;99.90
7738;DHT22;29398;45.328;5.558;2023-08-30T05:40:50;13.50;99.90
7738;DHT22;29398;45.328;5.558;2023-08-30T05:41:51;13.50;99.90
7738;DHT22;29398;45.328;5.558;2023-08-30T05:42:55;13.50;99.90
7738;DHT22;29398;45.328;5.558;2023-08-30T05:43:57;13.50;99.90
7738;DHT22;29398;45.328;5.558;2023-08-30T05:45:00;13.50;99.90
7738;DHT22;29398;45.328;5.558;2023-08-30T05:46:01;13.50;99.90
7738;DHT22;29398;45.328;5.558;2023-08-30T05:47:03;13.50;99.90
7738;DHT22;29398;45.328;5.558;2023-08-30T05:48:06;13.60;99.90
7738;DHT22;29398;45.328;5.558;2023-08-30T05:49:07;13.60;99.90
7738;DHT22;29398;45.328;5.558;2023-08-30T05:50:09;13.60;99.90
7738;DHT22;29398;45.328;5.558;2023-08-30T05:51:12;13.60;99.90
7738;DHT22;29398;45.328;5.558;2023-08-30T05:52:15;13.60;99.90
7738;DHT22;29398;45.328;5.558;2023-08-30T05:53:17;13.60;99.90
7738;DHT22;29398;45.328;5.558;2023-08-30T05:54:19;13.60;99.90
7738;DHT22;29398;45.328;5.558;2023-08-30T05:55:20;13.70;99.90
7738;DHT22;29398;45.328;5.558;2023-08-30T05:56:22;13.70;99.90
7738;DHT22;29398;45.328;5.558;2023-08-30T05:57:23;13.70;99.90
7738;DHT22;29398;45.328;5.558;2023-08-30T05:58:26;13.70;99.90
7738;DHT22;29398;45.328;5.558;2023-08-30T05:59:27;13.70;99.90
7738;DHT22;29398;45.328;5.558;2023-08-30T06:00:30;13.80;99.90
7738;DHT22;29398;45.328;5.558;2023-08-30T06:01:31;13.70;99.90
7738;DHT22;29398;45.328;5.558;2023-08-30T06:02:33;13.80;99.90
7738;DHT22;29398;45.328;5.558;2023-08-30T06:03:34;13.80;99.90
7738;DHT22;29398;45.328;5.558;2023-08-30T06:04:36;13.80;99.90
7738;DHT22;29398;45.328;5.558;2023-08-30T06:05:37;13.80;99.90
7738;DHT22;29398;45.328;5.558;2023-08-30T06:06:39;13.80;99.90
7738;DHT22;29398;45.328;5.558;2023-08-30T06:07:41;13.90;99.90
7738;DHT22;29398;45.328;5.558;2023-08-30T06:08:42;13.90;99.90
7738;DHT22;29398;45.328;5.558;2023-08-30T06:09:45;13.90;99.90
7738;DHT22;29398;45.328;5.558;2023-08-30T06:10:46;13.90;99.90
7738;DHT22;29398;45.328;5.558;2023-08-30T06:11:48;13.90;99.90
7738;DHT22;29398;45.328;5.558;2023-08-30T06:12:49;14.00;99.90
7738;DHT22;29398;45.328;5.558;2023-08-30T06:13:51;16.40;99.90
7738;DHT22;29398;45.328;5.558;2023-08-30T06:14:52;14.00;99.90
7738;DHT22;29398;45.328;5.558;2023-08-30T06:15:55;14.10;99.90
7738;DHT22;29398;45.328;5.558;2023-08-30T06:16:56;14.10;99.90
7738;DHT22;29398;45.328;5.558;2023-08-30T06:17:58;14.10;99.90
7738;DHT22;29398;45.328;5.558;2023-08-30T06:18:59;14.20;99.90
7738;DHT22;29398;45.328;5.558;2023-08-30T06:20:01;14.20;99.90
7738;DHT22;29398;45.328;5.558;2023-08-30T06:21:03;14.20;99.90
7738;DHT22;29398;45.328;5.558;2023-08-30T06:22:07;14.20;99.90
7738;DHT22;29398;45.328;5.558;2023-08-30T06:23:09;14.30;99.90
7738;DHT22;29398;45.328;5.558;2023-08-30T06:24:11;14.30;99.90
7738;DHT22;29398;45.328;5.558;2023-08-30T06:25:12;14.30;99.90
7738;DHT22;29398;45.328;5.558;2023-08-30T06:26:14;14.40;99.90
7738;DHT22;29398;45.328;5.558;2023-08-30T06:27:15;14.40;99.90
7738;DHT22;29398;45.328;5.558;2023-08-30T06:28:17;14.40;99.90
7738;DHT22;29398;45.328;5.558;2023-08-30T06:29:18;14.40;99.90
7738;DHT22;29398;45.328;5.558;2023-08-30T06:30:20;14.40;99.90
7738;DHT22;29398;45.328;5.558;2023-08-30T06:31:21;14.40;99.90
7738;DHT22;29398;45.328;5.558;2023-08-30T06:32:24;14.40;99.90
7738;DHT22;29398;45.328;5.558;2023-08-30T06:33:25;14.40;99.90
7738;DHT22;29398;45.328;5.558;2023-08-30T06:34:27;14.40;99.90
7738;DHT22;29398;45.328;5.558;2023-08-30T06:35:28;14.40;99.90
7738;DHT22;29398;45.328;5.558;2023-08-30T06:36:31;14.40;99.90
7738;DHT22;29398;45.328;5.558;2023-08-30T06:37:33;14.50;99.90
7738;DHT22;29398;45.328;5.558;2023-08-30T06:38:35;14.50;99.90
7738;DHT22;29398;45.328;5.558;2023-08-30T06:39:36;14.50;99.90
7738;DHT22;29398;45.328;5.558;2023-08-30T06:40:43;14.50;99.90
7738;DHT22;29398;45.328;5.558;2023-08-30T06:41:44;14.60;99.90
7738;DHT22;29398;45.328;5.558;2023-08-30T06:42:49;14.60;99.90
7738;DHT22;29398;45.328;5.558;2023-08-30T06:43:50;14.60;99.90
7738;DHT22;29398;45.328;5.558;2023-08-30T06:44:52;14.60;99.90
7738;DHT22;29398;45.328;5.558;2023-08-30T06:45:53;14.60;99.90
7738;DHT22;29398;45.328;5.558;2023-08-30T06:46:55;14.60;99.90
7738;DHT22;29398;45.328;5.558;2023-08-30T06:47:56;14.70;99.90
7738;DHT22;29398;45.328;5.558;2023-08-30T06:48:57;14.70;99.90
7738;DHT22;29398;45.328;5.558;2023-08-30T06:50:00;14.70;99.90
7738;DHT22;29398;45.328;5.558;2023-08-30T06:51:01;14.80;99.90